sensor_id;sensor_type;location;lat;lon;timestamp;temperature;humidity
5647;DHT22;2845;48.626;9.362;2023-08-08T00:00:41;12.70;95.30
5647;DHT22;2845;48.626;9.362;2023-08-08T00:03:15;12.60;95.40
5647;DHT22;2845;48.626;9.362;2023-08-08T00:05:50;14.50;95.80
5647;DHT22;2845;48.626;9.362;2023-08-08T00:08:24;12.30;96.00
5647;DHT22;2845;48.626;9.362;2023-08-08T00:11:01;12.20;96.10
5647;DHT22;2845;48.626;9.362;2023-08-08T00:13:36;15.80;97.20
5647;DHT22;2845;48.626;9.362;2023-08-08T00:16:10;12.20;96.20
5647;DHT22;2845;48.626;9.362;2023-08-08T00:18:45;12.10;96.60
5647;DHT22;2845;48.626;9.362;2023-08-08T00:21:19;12.00;96.60
5647;DHT22;2845;48.626;9.362;2023-08-08T00:26:30;11.90;97.00
5647;DHT22;2845;48.626;9.362;2023-08-08T00:29:04;14.10;98.50
5647;DHT22;2845;48.626;9.362;2023-08-08T00:31:39;11.90;97.20
5647;DHT22;2845;48.626;9.362;2023-08-08T00:34:13;16.10;98.40
5647;DHT22;2845;48.626;9.362;2023-08-08T00:36:47;12.00;97.00
5647;DHT22;2845;48.626;9.362;2023-08-08T00:39:21;11.90;97.00
5647;DHT22;2845;48.626;9.362;2023-08-08T00:44:32;12.00;97.20
5647;DHT22;2845;48.626;9.362;2023-08-08T00:47:07;12.00;97.20
5647;DHT22;2845;48.626;9.362;2023-08-08T00:49:41;12.00;97.60
5647;DHT22;2845;48.626;9.362;2023-08-08T00:52:16;12.10;97.50
5647;DHT22;2845;48.626;9.362;2023-08-08T00:54:51;12.20;97.50
5647;DHT22;2845;48.626;9.362;2023-08-08T01:00:02;12.20;97.40
5647;DHT22;2845;48.626;9.362;2023-08-08T01:02:37;12.30;97.50
5647;DHT22;2845;48.626;9.362;2023-08-08T01:05:12;12.30;97.60
5647;DHT22;2845;48.626;9.362;2023-08-08T01:07:51;12.30;97.50
5647;DHT22;2845;48.626;9.362;2023-08-08T01:10:29;12.40;97.60
5647;DHT22;2845;48.626;9.362;2023-08-08T01:13:12;12.50;97.60
5647;DHT22;2845;48.626;9.362;2023-08-08T01:15:49;12.40;97.60
5647;DHT22;2845;48.626;9.362;2023-08-08T01:18:24;12.50;97.40
5647;DHT22;2845;48.626;9.362;2023-08-08T01:20:59;12.50;97.40
5647;DHT22;2845;48.626;9.362;2023-08-08T01:23:42;12.60;97.50
5647;DHT22;2845;48.626;9.362;2023-08-08T01:26:20;12.50;97.40
5647;DHT22;2845;48.626;9.362;2023-08-08T01:28:55;12.50;97.50
5647;DHT22;2845;48.626;9.362;2023-08-08T01:31:29;12.40;97.90
5647;DHT22;2845;48.626;9.362;2023-08-08T01:34:04;12.50;97.70
5647;DHT22;2845;48.626;9.362;2023-08-08T01:36:42;15.30;98.80
5647;DHT22;2845;48.626;9.362;2023-08-08T01:39:24;12.60;97.90
5647;DHT22;2845;48.626;9.362;2023-08-08T01:42:01;12.60;97.80
5647;DHT22;2845;48.626;9.362;2023-08-08T01:44:36;12.60;98.10
5647;DHT22;2845;48.626;9.362;2023-08-08T01:47:12;12.60;98.10
5647;DHT22;2845;48.626;9.362;2023-08-08T01:49:46;12.60;97.90
5647;DHT22;2845;48.626;9.362;2023-08-08T01:52:20;12.60;98.00
5647;DHT22;2845;48.626;9.362;2023-08-08T01:54:55;12.60;98.00
5647;DHT22;2845;48.626;9.362;2023-08-08T02:00:07;12.70;98.00
5647;DHT22;2845;48.626;9.362;2023-08-08T02:02:42;12.70;98.10
5647;DHT22;2845;48.626;9.362;2023-08-08T02:05:17;16.30;99.00
5647;DHT22;2845;48.626;9.362;2023-08-08T02:07:53;12.70;98.10
5647;DHT22;2845;48.626;9.362;2023-08-08T02:10:27;12.60;98.20
5647;DHT22;2845;48.626;9.362;2023-08-08T02:13:03;12.70;98.30
5647;DHT22;2845;48.626;9.362;2023-08-08T02:15:37;12.60;98.30
5647;DHT22;2845;48.626;9.362;2023-08-08T02:18:12;12.60;98.30
5647;DHT22;2845;48.626;9.362;2023-08-08T02:20:46;12.40;98.30
5647;DHT22;2845;48.626;9.362;2023-08-08T02:23:20;12.60;98.50
5647;DHT22;2845;48.626;9.362;2023-08-08T02:25:57;12.60;98.60
5647;DHT22;2845;48.626;9.362;2023-08-08T02:28:32;12.50;98.70
5647;DHT22;2845;48.626;9.362;2023-08-08T02:31:07;15.10;99.20
5647;DHT22;2845;48.626;9.362;2023-08-08T02:33:41;12.60;98.70
5647;DHT22;2845;48.626;9.362;2023-08-08T02:36:15;12.60;98.80
5647;DHT22;2845;48.626;9.362;2023-08-08T02:38:50;12.60;98.60
5647;DHT22;2845;48.626;9.362;2023-08-08T02:41:26;12.60;98.60
5647;DHT22;2845;48.626;9.362;2023-08-08T02:44:02;12.70;98.70
5647;DHT22;2845;48.626;9.362;2023-08-08T02:46:37;12.70;98.70
5647;DHT22;2845;48.626;9.362;2023-08-08T02:49:11;14.50;99.10
5647;DHT22;2845;48.626;9.362;2023-08-08T02:51:45;17.00;99.90
5647;DHT22;2845;48.626;9.362;2023-08-08T02:54:20;12.60;98.60
5647;DHT22;2845;48.626;9.362;2023-08-08T02:56:54;14.80;99.60
5647;DHT22;2845;48.626;9.362;2023-08-08T02:59:30;12.60;98.70
5647;DHT22;2845;48.626;9.362;2023-08-08T03:02:05;12.60;99.10
5647;DHT22;2845;48.626;9.362;2023-08-08T03:07:14;12.60;98.70
5647;DHT22;2845;48.626;9.362;2023-08-08T03:09:48;12.10;98.60
5647;DHT22;2845;48.626;9.362;2023-08-08T03:12:22;12.50;99.00
5647;DHT22;2845;48.626;9.362;2023-08-08T03:17:33;12.60;98.80
5647;DHT22;2845;48.626;9.362;2023-08-08T03:20:08;12.60;98.90
5647;DHT22;2845;48.626;9.362;2023-08-08T03:22:44;12.60;98.90
5647;DHT22;2845;48.626;9.362;2023-08-08T03:25:18;12.70;98.90
5647;DHT22;2845;48.626;9.362;2023-08-08T03:27:53;12.60;99.20
5647;DHT22;2845;48.626;9.362;2023-08-08T03:30:28;12.70;98.90
5647;DHT22;2845;48.626;9.362;2023-08-08T03:33:03;16.50;99.90
5647;DHT22;2845;48.626;9.362;2023-08-08T03:35:38;12.70;98.80
5647;DHT22;2845;48.626;9.362;2023-08-08T03:38:12;12.60;99.20
5647;DHT22;2845;48.626;9.362;2023-08-08T03:40:47;16.90;99.90
5647;DHT22;2845;48.626;9.362;2023-08-08T03:43:21;10.70;98.70
5647;DHT22;2845;48.626;9.362;2023-08-08T03:45:57;12.60;99.50
5647;DHT22;2845;48.626;9.362;2023-08-08T03:48:32;12.60;99.30
5647;DHT22;2845;48.626;9.362;2023-08-08T03:51:06;12.60;99.40
5647;DHT22;2845;48.626;9.362;2023-08-08T03:53:40;12.70;99.50
5647;DHT22;2845;48.626;9.362;2023-08-08T03:56:15;12.60;99.40
5647;DHT22;2845;48.626;9.362;2023-08-08T03:58:49;14.40;99.80
5647;DHT22;2845;48.626;9.362;2023-08-08T04:01:25;12.60;99.50
5647;DHT22;2845;48.626;9.362;2023-08-08T04:03:59;12.70;99.40
5647;DHT22;2845;48.626;9.362;2023-08-08T04:06:33;12.70;99.20
5647;DHT22;2845;48.626;9.362;2023-08-08T04:09:16;11.90;99.20
5647;DHT22;2845;48.626;9.362;2023-08-08T04:11:51;12.80;99.30
5647;DHT22;2845;48.626;9.362;2023-08-08T04:14:25;12.80;99.30
5647;DHT22;2845;48.626;9.362;2023-08-08T04:17:01;12.90;99.20
5647;DHT22;2845;48.626;9.362;2023-08-08T04:19:37;12.90;99.20
5647;DHT22;2845;48.626;9.362;2023-08-08T04:22:13;12.90;99.20
5647;DHT22;2845;48.626;9.362;2023-08-08T04:24:48;13.00;99.20
5647;DHT22;2845;48.626;9.362;2023-08-08T04:27:25;10.60;98.70
5647;DHT22;2845;48.626;9.362;2023-08-08T04:32:35;13.10;99.00
5647;DHT22;2845;48.626;9.362;2023-08-08T04:35:09;13.10;99.00
5647;DHT22;2845;48.626;9.362;2023-08-08T04:37:43;13.20;98.90
5647;DHT22;2845;48.626;9.362;2023-08-08T04:40:18;13.20;98.80
5647;DHT22;2845;48.626;9.362;2023-08-08T04:42:52;13.30;98.60
5647;DHT22;2845;48.626;9.362;2023-08-08T04:45:26;13.30;98.40
5647;DHT22;2845;48.626;9.362;2023-08-08T04:48:04;13.40;98.30
5647;DHT22;2845;48.626;9.362;2023-08-08T04:50:41;13.50;98.10
5647;DHT22;2845;48.626;9.362;2023-08-08T04:53:15;13.50;97.80
5647;DHT22;2845;48.626;9.362;2023-08-08T04:55:49;13.90;97.80
5647;DHT22;2845;48.626;9.362;2023-08-08T04:58:23;13.60;97.50
5647;DHT22;2845;48.626;9.362;2023-08-08T05:00:57;13.70;97.60
5647;DHT22;2845;48.626;9.362;2023-08-08T05:03:33;13.60;97.30
5647;DHT22;2845;48.626;9.362;2023-08-08T05:06:07;13.60;97.20
5647;DHT22;2845;48.626;9.362;2023-08-08T05:08:42;13.70;97.30
5647;DHT22;2845;48.626;9.362;2023-08-08T05:11:16;13.60;97.20
5647;DHT22;2845;48.626;9.362;2023-08-08T05:13:50;13.60;97.30
5647;DHT22;2845;48.626;9.362;2023-08-08T05:16:27;13.60;97.20
5647;DHT22;2845;48.626;9.362;2023-08-08T05:21:37;13.70;97.10
5647;DHT22;2845;48.626;9.362;2023-08-08T05:24:12;13.80;97.30
5647;DHT22;2845;48.626;9.362;2023-08-08T05:26:46;13.70;97.10
5647;DHT22;2845;48.626;9.362;2023-08-08T05:29:20;13.80;97.20
5647;DHT22;2845;48.626;9.362;2023-08-08T05:31:54;13.80;96.90
5647;DHT22;2845;48.626;9.362;2023-08-08T05:34:32;13.90;96.80
5647;DHT22;2845;48.626;9.362;2023-08-08T05:37:06;14.10;96.70
5647;DHT22;2845;48.626;9.362;2023-08-08T05:39:49;14.20;96.60
5647;DHT22;2845;48.626;9.362;2023-08-08T05:42:23;14.40;96.40
5647;DHT22;2845;48.626;9.362;2023-08-08T05:44:57;14.50;96.10
5647;DHT22;2845;48.626;9.362;2023-08-08T05:47:32;14.50;95.90
5647;DHT22;2845;48.626;9.362;2023-08-08T05:50:08;14.60;95.80
5647;DHT22;2845;48.626;9.362;2023-08-08T05:52:43;14.60;95.70
5647;DHT22;2845;48.626;9.362;2023-08-08T05:55:17;14.50;95.60
5647;DHT22;2845;48.626;9.362;2023-08-08T05:57:51;14.50;95.80
5647;DHT22;2845;48.626;9.362;2023-08-08T06:00:27;14.60;95.90
5647;DHT22;2845;48.626;9.362;2023-08-08T06:03:01;14.80;95.70
5647;DHT22;2845;48.626;9.362;2023-08-08T06:05:37;15.10;95.40
5647;DHT22;2845;48.626;9.362;2023-08-08T06:08:11;15.30;95.30
5647;DHT22;2845;48.626;9.362;2023-08-08T06:10:47;15.30;95.00
5647;DHT22;2845;48.626;9.362;2023-08-08T06:13:22;15.20;94.70
5647;DHT22;2845;48.626;9.362;2023-08-08T06:15:56;15.00;94.80
5647;DHT22;2845;48.626;9.362;2023-08-08T06:18:31;15.00;94.90
5647;DHT22;2845;48.626;9.362;2023-08-08T06:21:06;15.00;95.10
5647;DHT22;2845;48.626;9.362;2023-08-08T06:23:41;14.90;94.90
5647;DHT22;2845;48.626;9.362;2023-08-08T06:28:50;15.20;94.80
5647;DHT22;2845;48.626;9.362;2023-08-08T06:31:25;15.40;94.50
5647;DHT22;2845;48.626;9.362;2023-08-08T06:33:59;15.60;94.20
5647;DHT22;2845;48.626;9.362;2023-08-08T06:39:09;14.80;93.60
5647;DHT22;2845;48.626;9.362;2023-08-08T06:41:44;16.10;93.70
5647;DHT22;2845;48.626;9.362;2023-08-08T06:44:19;16.30;93.50
5647;DHT22;2845;48.626;9.362;2023-08-08T06:46:53;16.40;93.30
5647;DHT22;2845;48.626;9.362;2023-08-08T06:49:27;16.50;93.20
5647;DHT22;2845;48.626;9.362;2023-08-08T06:52:04;16.50;93.00
5647;DHT22;2845;48.626;9.362;2023-08-08T06:54:38;16.60;93.10
5647;DHT22;2845;48.626;9.362;2023-08-08T06:57:12;16.60;93.00
5647;DHT22;2845;48.626;9.362;2023-08-08T06:59:47;16.60;92.70
5647;DHT22;2845;48.626;9.362;2023-08-08T07:02:23;18.70;92.90
5647;DHT22;2845;48.626;9.362;2023-08-08T07:04:57;16.70;92.40
5647;DHT22;2845;48.626;9.362;2023-08-08T07:10:08;16.90;92.30
5647;DHT22;2845;48.626;9.362;2023-08-08T07:12:44;17.00;92.10
5647;DHT22;2845;48.626;9.362;2023-08-08T07:15:19;15.90;91.90
5647;DHT22;2845;48.626;9.362;2023-08-08T07:17:53;17.20;92.10
5647;DHT22;2845;48.626;9.362;2023-08-08T07:20:30;17.30;91.70
5647;DHT22;2845;48.626;9.362;2023-08-08T07:23:05;17.40;91.80
5647;DHT22;2845;48.626;9.362;2023-08-08T07:25:40;21.80;92.70
5647;DHT22;2845;48.626;9.362;2023-08-08T07:28:14;18.10;91.80
5647;DHT22;2845;48.626;9.362;2023-08-08T07:30:49;17.50;91.50
5647;DHT22;2845;48.626;9.362;2023-08-08T07:33:23;17.60;91.50
5647;DHT22;2845;48.626;9.362;2023-08-08T07:35:58;17.80;91.30
5647;DHT22;2845;48.626;9.362;2023-08-08T07:41:08;17.90;91.10
5647;DHT22;2845;48.626;9.362;2023-08-08T07:43:42;18.70;91.40
5647;DHT22;2845;48.626;9.362;2023-08-08T07:46:17;18.00;91.20
5647;DHT22;2845;48.626;9.362;2023-08-08T07:48:51;18.10;91.00
5647;DHT22;2845;48.626;9.362;2023-08-08T07:51:25;18.10;90.90
5647;DHT22;2845;48.626;9.362;2023-08-08T07:56:38;18.50;90.50
5647;DHT22;2845;48.626;9.362;2023-08-08T07:59:12;18.60;90.30
5647;DHT22;2845;48.626;9.362;2023-08-08T08:01:46;18.90;90.00
5647;DHT22;2845;48.626;9.362;2023-08-08T08:04:20;19.50;90.20
5647;DHT22;2845;48.626;9.362;2023-08-08T08:06:55;19.50;89.10
5647;DHT22;2845;48.626;9.362;2023-08-08T08:09:31;19.60;88.40
5647;DHT22;2845;48.626;9.362;2023-08-08T08:12:05;19.80;87.80
5647;DHT22;2845;48.626;9.362;2023-08-08T08:14:40;20.00;87.80
5647;DHT22;2845;48.626;9.362;2023-08-08T08:17:15;20.20;87.10
5647;DHT22;2845;48.626;9.362;2023-08-08T08:19:50;20.10;86.60
5647;DHT22;2845;48.626;9.362;2023-08-08T08:22:24;20.90;87.30
5647;DHT22;2845;48.626;9.362;2023-08-08T08:25:00;20.10;86.50
5647;DHT22;2845;48.626;9.362;2023-08-08T08:27:35;20.20;86.20
5647;DHT22;2845;48.626;9.362;2023-08-08T08:30:10;21.70;86.90
5647;DHT22;2845;48.626;9.362;2023-08-08T08:32:48;20.50;86.00
5647;DHT22;2845;48.626;9.362;2023-08-08T08:35:24;20.70;86.00
5647;DHT22;2845;48.626;9.362;2023-08-08T08:37:59;20.80;84.90
5647;DHT22;2845;48.626;9.362;2023-08-08T08:40:37;22.70;86.10
5647;DHT22;2845;48.626;9.362;2023-08-08T08:43:13;20.80;84.90
5647;DHT22;2845;48.626;9.362;2023-08-08T08:45:51;20.90;84.80
5647;DHT22;2845;48.626;9.362;2023-08-08T08:48:26;21.30;85.10
5647;DHT22;2845;48.626;9.362;2023-08-08T08:51:01;20.80;84.70
5647;DHT22;2845;48.626;9.362;2023-08-08T08:53:36;20.70;84.60
5647;DHT22;2845;48.626;9.362;2023-08-08T08:56:13;21.20;84.60
5647;DHT22;2845;48.626;9.362;2023-08-08T08:58:47;20.70;83.60
5647;DHT22;2845;48.626;9.362;2023-08-08T09:01:23;20.90;83.30
5647;DHT22;2845;48.626;9.362;2023-08-08T09:03:57;20.90;83.40
5647;DHT22;2845;48.626;9.362;2023-08-08T09:06:32;21.00;83.40
5647;DHT22;2845;48.626;9.362;2023-08-08T09:09:07;21.30;83.20
5647;DHT22;2845;48.626;9.362;2023-08-08T09:11:52;21.20;82.20
5647;DHT22;2845;48.626;9.362;2023-08-08T09:14:27;21.10;81.90
5647;DHT22;2845;48.626;9.362;2023-08-08T09:17:01;21.10;81.60
5647;DHT22;2845;48.626;9.362;2023-08-08T09:19:36;21.30;82.40
5647;DHT22;2845;48.626;9.362;2023-08-08T09:22:10;21.30;80.60
5647;DHT22;2845;48.626;9.362;2023-08-08T09:24:47;21.30;81.30
5647;DHT22;2845;48.626;9.362;2023-08-08T09:27:22;21.30;81.50
5647;DHT22;2845;48.626;9.362;2023-08-08T09:29:57;20.00;80.90
5647;DHT22;2845;48.626;9.362;2023-08-08T09:32:32;21.20;80.70
5647;DHT22;2845;48.626;9.362;2023-08-08T09:35:07;21.20;80.80
5647;DHT22;2845;48.626;9.362;2023-08-08T09:37:43;22.30;80.00
5647;DHT22;2845;48.626;9.362;2023-08-08T09:40:17;21.30;81.00
5647;DHT22;2845;48.626;9.362;2023-08-08T09:42:57;21.40;81.10
5647;DHT22;2845;48.626;9.362;2023-08-08T09:45:36;21.50;79.80
5647;DHT22;2845;48.626;9.362;2023-08-08T09:48:11;21.60;79.80
5647;DHT22;2845;48.626;9.362;2023-08-08T09:50:45;21.80;80.10
5647;DHT22;2845;48.626;9.362;2023-08-08T09:53:20;21.60;79.20
5647;DHT22;2845;48.626;9.362;2023-08-08T09:55:55;21.60;78.00
5647;DHT22;2845;48.626;9.362;2023-08-08T09:58:31;21.90;78.20
5647;DHT22;2845;48.626;9.362;2023-08-08T10:01:07;21.60;78.90
5647;DHT22;2845;48.626;9.362;2023-08-08T10:03:43;21.60;78.60
5647;DHT22;2845;48.626;9.362;2023-08-08T10:06:24;21.70;78.80
5647;DHT22;2845;48.626;9.362;2023-08-08T10:09:02;22.20;78.70
5647;DHT22;2845;48.626;9.362;2023-08-08T10:11:39;22.20;78.50
5647;DHT22;2845;48.626;9.362;2023-08-08T10:14:16;22.50;78.20
5647;DHT22;2845;48.626;9.362;2023-08-08T10:16:51;22.60;76.70
5647;DHT22;2845;48.626;9.362;2023-08-08T10:19:25;22.60;76.00
5647;DHT22;2845;48.626;9.362;2023-08-08T10:22:03;22.50;76.70
5647;DHT22;2845;48.626;9.362;2023-08-08T10:24:38;22.40;76.30
5647;DHT22;2845;48.626;9.362;2023-08-08T10:27:13;22.30;75.60
5647;DHT22;2845;48.626;9.362;2023-08-08T10:29:51;22.30;76.30
5647;DHT22;2845;48.626;9.362;2023-08-08T10:32:25;22.40;75.90
5647;DHT22;2845;48.626;9.362;2023-08-08T10:35:03;22.70;76.20
5647;DHT22;2845;48.626;9.362;2023-08-08T10:37:40;22.80;75.10
5647;DHT22;2845;48.626;9.362;2023-08-08T10:40:17;22.80;75.10
5647;DHT22;2845;48.626;9.362;2023-08-08T10:42:52;22.80;74.30
5647;DHT22;2845;48.626;9.362;2023-08-08T10:45:35;22.80;74.10
5647;DHT22;2845;48.626;9.362;2023-08-08T10:48:10;22.80;74.00
5647;DHT22;2845;48.626;9.362;2023-08-08T10:50:45;22.80;74.20
5647;DHT22;2845;48.626;9.362;2023-08-08T10:53:22;22.80;74.20
5647;DHT22;2845;48.626;9.362;2023-08-08T10:55:59;22.70;73.30
5647;DHT22;2845;48.626;9.362;2023-08-08T10:58:36;22.50;73.50
5647;DHT22;2845;48.626;9.362;2023-08-08T11:01:12;22.20;73.90
5647;DHT22;2845;48.626;9.362;2023-08-08T11:03:50;22.30;74.10
5647;DHT22;2845;48.626;9.362;2023-08-08T11:06:24;22.50;72.90
5647;DHT22;2845;48.626;9.362;2023-08-08T11:09:00;25.10;75.10
5647;DHT22;2845;48.626;9.362;2023-08-08T11:11:37;22.70;74.20
5647;DHT22;2845;48.626;9.362;2023-08-08T11:14:13;23.00;73.40
5647;DHT22;2845;48.626;9.362;2023-08-08T11:16:50;23.00;74.10
5647;DHT22;2845;48.626;9.362;2023-08-08T11:19:25;23.30;73.10
5647;DHT22;2845;48.626;9.362;2023-08-08T11:22:00;23.50;72.90
5647;DHT22;2845;48.626;9.362;2023-08-08T11:24:43;23.50;72.00
5647;DHT22;2845;48.626;9.362;2023-08-08T11:27:17;23.70;71.80
5647;DHT22;2845;48.626;9.362;2023-08-08T11:29:56;23.80;70.10
5647;DHT22;2845;48.626;9.362;2023-08-08T11:32:33;24.00;69.90
5647;DHT22;2845;48.626;9.362;2023-08-08T11:35:08;23.90;69.90
5647;DHT22;2845;48.626;9.362;2023-08-08T11:37:43;24.10;70.70
5647;DHT22;2845;48.626;9.362;2023-08-08T11:40:18;24.30;71.70
5647;DHT22;2845;48.626;9.362;2023-08-08T11:42:54;24.30;70.00
5647;DHT22;2845;48.626;9.362;2023-08-08T11:45:31;23.60;71.00
5647;DHT22;2845;48.626;9.362;2023-08-08T11:48:08;23.50;70.60
5647;DHT22;2845;48.626;9.362;2023-08-08T11:50:44;23.60;72.20
5647;DHT22;2845;48.626;9.362;2023-08-08T11:53:19;24.30;70.80
5647;DHT22;2845;48.626;9.362;2023-08-08T11:55:54;23.50;70.40
5647;DHT22;2845;48.626;9.362;2023-08-08T11:58:29;23.50;70.80
5647;DHT22;2845;48.626;9.362;2023-08-08T12:01:05;23.60;71.80
5647;DHT22;2845;48.626;9.362;2023-08-08T12:03:42;23.70;69.80
5647;DHT22;2845;48.626;9.362;2023-08-08T12:06:17;23.90;69.50
5647;DHT22;2845;48.626;9.362;2023-08-08T12:08:54;23.60;71.20
5647;DHT22;2845;48.626;9.362;2023-08-08T12:11:28;23.50;70.00
5647;DHT22;2845;48.626;9.362;2023-08-08T12:14:03;23.50;70.00
5647;DHT22;2845;48.626;9.362;2023-08-08T12:16:38;23.40;68.50
5647;DHT22;2845;48.626;9.362;2023-08-08T12:19:15;23.60;68.60
5647;DHT22;2845;48.626;9.362;2023-08-08T12:21:53;23.70;69.40
5647;DHT22;2845;48.626;9.362;2023-08-08T12:24:28;23.70;68.40
5647;DHT22;2845;48.626;9.362;2023-08-08T12:27:02;25.30;68.50
5647;DHT22;2845;48.626;9.362;2023-08-08T12:29:36;23.40;68.40
5647;DHT22;2845;48.626;9.362;2023-08-08T12:32:11;23.70;69.50
5647;DHT22;2845;48.626;9.362;2023-08-08T12:34:46;23.50;68.30
5647;DHT22;2845;48.626;9.362;2023-08-08T12:37:21;23.60;67.50
5647;DHT22;2845;48.626;9.362;2023-08-08T12:39:58;23.60;67.10
5647;DHT22;2845;48.626;9.362;2023-08-08T12:42:38;23.80;68.00
5647;DHT22;2845;48.626;9.362;2023-08-08T12:45:15;23.80;66.70
5647;DHT22;2845;48.626;9.362;2023-08-08T12:47:50;26.60;68.50
5647;DHT22;2845;48.626;9.362;2023-08-08T12:53:01;23.70;67.30
5647;DHT22;2845;48.626;9.362;2023-08-08T12:55:36;23.90;66.60
5647;DHT22;2845;48.626;9.362;2023-08-08T12:58:12;23.90;66.30
5647;DHT22;2845;48.626;9.362;2023-08-08T13:00:46;24.10;67.40
5647;DHT22;2845;48.626;9.362;2023-08-08T13:03:21;24.20;65.70
5647;DHT22;2845;48.626;9.362;2023-08-08T13:05:56;24.10;65.50
5647;DHT22;2845;48.626;9.362;2023-08-08T13:08:30;24.10;65.30
5647;DHT22;2845;48.626;9.362;2023-08-08T13:11:05;23.90;66.50
5647;DHT22;2845;48.626;9.362;2023-08-08T13:13:42;24.10;66.80
5647;DHT22;2845;48.626;9.362;2023-08-08T13:16:16;23.90;66.60
5647;DHT22;2845;48.626;9.362;2023-08-08T13:18:51;23.90;65.60
5647;DHT22;2845;48.626;9.362;2023-08-08T13:21:26;23.80;65.80
5647;DHT22;2845;48.626;9.362;2023-08-08T13:24:00;24.90;67.20
5647;DHT22;2845;48.626;9.362;2023-08-08T13:26:35;22.90;65.90
5647;DHT22;2845;48.626;9.362;2023-08-08T13:29:12;24.70;66.40
5647;DHT22;2845;48.626;9.362;2023-08-08T13:31:46;24.90;65.20
5647;DHT22;2845;48.626;9.362;2023-08-08T13:34:20;24.80;64.60
5647;DHT22;2845;48.626;9.362;2023-08-08T13:36:56;24.70;64.80
5647;DHT22;2845;48.626;9.362;2023-08-08T13:39:30;24.30;64.50
5647;DHT22;2845;48.626;9.362;2023-08-08T13:42:04;23.90;65.50
5647;DHT22;2845;48.626;9.362;2023-08-08T13:44:39;23.50;65.90
5647;DHT22;2845;48.626;9.362;2023-08-08T13:47:13;23.20;66.60
5647;DHT22;2845;48.626;9.362;2023-08-08T13:49:47;25.20;68.70
5647;DHT22;2845;48.626;9.362;2023-08-08T13:54:57;23.80;66.80
5647;DHT22;2845;48.626;9.362;2023-08-08T13:57:31;24.10;66.10
5647;DHT22;2845;48.626;9.362;2023-08-08T14:00:07;24.20;66.10
5647;DHT22;2845;48.626;9.362;2023-08-08T14:02:49;24.40;66.00
5647;DHT22;2845;48.626;9.362;2023-08-08T14:05:30;24.50;66.20
5647;DHT22;2845;48.626;9.362;2023-08-08T14:08:06;24.60;65.40
5647;DHT22;2845;48.626;9.362;2023-08-08T14:10:40;24.50;66.30
5647;DHT22;2845;48.626;9.362;2023-08-08T14:13:15;24.30;66.20
5647;DHT22;2845;48.626;9.362;2023-08-08T14:15:49;24.50;66.90
5647;DHT22;2845;48.626;9.362;2023-08-08T14:18:24;24.30;66.30
5647;DHT22;2845;48.626;9.362;2023-08-08T14:21:02;24.50;66.40
5647;DHT22;2845;48.626;9.362;2023-08-08T14:23:38;24.30;65.50
5647;DHT22;2845;48.626;9.362;2023-08-08T14:26:13;24.10;66.90
5647;DHT22;2845;48.626;9.362;2023-08-08T14:28:47;23.90;66.10
5647;DHT22;2845;48.626;9.362;2023-08-08T14:31:22;23.80;66.60
5647;DHT22;2845;48.626;9.362;2023-08-08T14:33:56;23.80;66.90
5647;DHT22;2845;48.626;9.362;2023-08-08T14:36:31;23.90;66.60
5647;DHT22;2845;48.626;9.362;2023-08-08T14:39:09;23.80;66.10
5647;DHT22;2845;48.626;9.362;2023-08-08T14:41:43;23.80;66.60
5647;DHT22;2845;48.626;9.362;2023-08-08T14:44:18;23.70;67.10
5647;DHT22;2845;48.626;9.362;2023-08-08T14:46:52;23.50;67.50
5647;DHT22;2845;48.626;9.362;2023-08-08T14:49:26;23.30;67.60
5647;DHT22;2845;48.626;9.362;2023-08-08T14:52:00;23.10;68.60
5647;DHT22;2845;48.626;9.362;2023-08-08T14:54:36;22.90;68.50
5647;DHT22;2845;48.626;9.362;2023-08-08T14:57:11;22.80;68.90
5647;DHT22;2845;48.626;9.362;2023-08-08T14:59:45;22.80;68.20
5647;DHT22;2845;48.626;9.362;2023-08-08T15:02:19;22.70;68.40
5647;DHT22;2845;48.626;9.362;2023-08-08T15:04:53;22.60;69.00
5647;DHT22;2845;48.626;9.362;2023-08-08T15:07:28;23.00;69.10
5647;DHT22;2845;48.626;9.362;2023-08-08T15:10:07;22.80;69.20
5647;DHT22;2845;48.626;9.362;2023-08-08T15:12:42;22.80;69.30
5647;DHT22;2845;48.626;9.362;2023-08-08T15:15:16;23.30;69.30
5647;DHT22;2845;48.626;9.362;2023-08-08T15:17:55;23.00;69.00
5647;DHT22;2845;48.626;9.362;2023-08-08T15:20:29;23.70;68.30
5647;DHT22;2845;48.626;9.362;2023-08-08T15:23:03;23.50;68.70
5647;DHT22;2845;48.626;9.362;2023-08-08T15:25:40;23.60;68.40
5647;DHT22;2845;48.626;9.362;2023-08-08T15:28:14;23.90;67.90
5647;DHT22;2845;48.626;9.362;2023-08-08T15:30:49;23.60;67.30
5647;DHT22;2845;48.626;9.362;2023-08-08T15:33:23;23.60;67.90
5647;DHT22;2845;48.626;9.362;2023-08-08T15:35:57;23.30;67.10
5647;DHT22;2845;48.626;9.362;2023-08-08T15:38:32;23.20;68.10
5647;DHT22;2845;48.626;9.362;2023-08-08T15:41:07;23.00;68.50
5647;DHT22;2845;48.626;9.362;2023-08-08T15:43:42;22.80;68.80
5647;DHT22;2845;48.626;9.362;2023-08-08T15:46:16;22.70;69.60
5647;DHT22;2845;48.626;9.362;2023-08-08T15:48:52;22.50;69.80
5647;DHT22;2845;48.626;9.362;2023-08-08T15:51:26;22.50;69.90
5647;DHT22;2845;48.626;9.362;2023-08-08T15:54:01;22.30;69.60
5647;DHT22;2845;48.626;9.362;2023-08-08T15:56:38;22.40;70.10
5647;DHT22;2845;48.626;9.362;2023-08-08T15:59:14;22.30;70.20
5647;DHT22;2845;48.626;9.362;2023-08-08T16:01:48;22.60;70.60
5647;DHT22;2845;48.626;9.362;2023-08-08T16:04:23;20.60;69.40
5647;DHT22;2845;48.626;9.362;2023-08-08T16:06:57;24.00;71.10
5647;DHT22;2845;48.626;9.362;2023-08-08T16:09:32;22.80;71.00
5647;DHT22;2845;48.626;9.362;2023-08-08T16:12:08;22.80;70.80
5647;DHT22;2845;48.626;9.362;2023-08-08T16:14:43;22.90;71.80
5647;DHT22;2845;48.626;9.362;2023-08-08T16:17:17;22.90;72.00
5647;DHT22;2845;48.626;9.362;2023-08-08T16:19:51;22.90;71.80
5647;DHT22;2845;48.626;9.362;2023-08-08T16:22:26;22.70;71.70
5647;DHT22;2845;48.626;9.362;2023-08-08T16:25:00;21.00;70.90
5647;DHT22;2845;48.626;9.362;2023-08-08T16:27:36;22.30;71.70
5647;DHT22;2845;48.626;9.362;2023-08-08T16:30:11;22.20;72.50
5647;DHT22;2845;48.626;9.362;2023-08-08T16:32:48;22.00;72.50
5647;DHT22;2845;48.626;9.362;2023-08-08T16:35:22;22.20;73.20
5647;DHT22;2845;48.626;9.362;2023-08-08T16:37:56;22.10;73.10
5647;DHT22;2845;48.626;9.362;2023-08-08T16:40:31;22.20;72.20
5647;DHT22;2845;48.626;9.362;2023-08-08T16:45:43;22.30;72.40
5647;DHT22;2845;48.626;9.362;2023-08-08T16:48:18;22.20;72.40
5647;DHT22;2845;48.626;9.362;2023-08-08T16:50:52;22.00;72.40
5647;DHT22;2845;48.626;9.362;2023-08-08T16:53:28;22.00;73.30
5647;DHT22;2845;48.626;9.362;2023-08-08T16:56:03;21.90;72.90
5647;DHT22;2845;48.626;9.362;2023-08-08T16:58:41;22.00;73.60
5647;DHT22;2845;48.626;9.362;2023-08-08T17:01:15;21.90;73.10
5647;DHT22;2845;48.626;9.362;2023-08-08T17:03:50;21.70;73.90
5647;DHT22;2845;48.626;9.362;2023-08-08T17:06:24;21.50;72.80
5647;DHT22;2845;48.626;9.362;2023-08-08T17:08:59;21.30;73.60
5647;DHT22;2845;48.626;9.362;2023-08-08T17:11:34;21.20;74.10
5647;DHT22;2845;48.626;9.362;2023-08-08T17:14:11;21.30;74.50
5647;DHT22;2845;48.626;9.362;2023-08-08T17:16:45;21.00;74.60
5647;DHT22;2845;48.626;9.362;2023-08-08T17:19:20;21.00;74.20
5647;DHT22;2845;48.626;9.362;2023-08-08T17:21:54;21.00;74.10
5647;DHT22;2845;48.626;9.362;2023-08-08T17:24:29;21.50;74.40
5647;DHT22;2845;48.626;9.362;2023-08-08T17:27:11;21.00;74.70
5647;DHT22;2845;48.626;9.362;2023-08-08T17:29:47;21.60;75.00
5647;DHT22;2845;48.626;9.362;2023-08-08T17:32:21;21.10;75.20
5647;DHT22;2845;48.626;9.362;2023-08-08T17:34:55;21.10;75.40